Time;durP1;ratioP1;P1;durP2;ratioP2;P2;SDS_P1;SDS_P2;PMS_P1;PMS_P2;Temp;Humidity;BMP_temperature;BMP_pressure;BME280_temperature;BME280_humidity;BME280_pressure;Samples;Min_cycle;Max_cycle;Signal;HPM_P1;HPM_P2
2023/08/22 00:00:32;;;;;;;2.40;2.20;;;25.00;60.60;;;;;;5056537;28;20486;-35
2023/08/22 00:02:58;;;;;;;2.83;2.53;;;25.00;63.10;;;;;;5051286;28;20178;-35
2023/08/22 00:05:24;;;;;;;2.55;2.35;;;25.00;64.80;;;;;;5043824;28;20041;-35
2023/08/22 00:07:51;;;;;;;3.08;2.58;;;25.00;65.30;;;;;;5043719;28;20116;-34
2023/08/22 00:10:17;;;;;;;2.63;2.43;;;25.00;65.50;;;;;;5051252;28;20025;-35
2023/08/22 00:12:43;;;;;;;3.30;2.40;;;25.00;65.50;;;;;;5051037;28;20045;-35
2023/08/22 00:15:10;;;;;;;2.35;2.15;;;25.00;65.40;;;;;;5057259;28;20285;-35
2023/08/22 00:17:44;;;;;;;2.67;2.47;;;25.00;65.50;;;;;;5035942;28;20074;-35
2023/08/22 00:20:11;;;;;;;2.80;2.60;;;25.00;66.40;;;;;;5054944;28;20035;-34
2023/08/22 00:22:37;;;;;;;3.20;2.67;;;25.00;65.90;;;;;;5045364;28;20575;-35
2023/08/22 00:25:07;;;;;;;2.40;2.20;;;25.00;65.90;;;;;;5049434;28;20033;-34
2023/08/22 00:27:34;;;;;;;2.85;2.55;;;25.00;66.10;;;;;;5049921;28;20281;-35
2023/08/22 00:30:00;;;;;;;2.10;2.00;;;25.00;66.10;;;;;;5053884;28;20040;-35
2023/08/22 00:32:26;;;;;;;2.75;2.55;;;25.00;66.40;;;;;;5025525;28;20494;-35
2023/08/22 00:34:52;;;;;;;3.17;2.88;;;25.00;66.60;;;;;;5043191;28;20053;-35
2023/08/22 00:37:19;;;;;;;2.47;2.28;;;25.00;66.80;;;;;;5048299;28;20057;-35
2023/08/22 00:39:45;;;;;;;2.50;2.30;;;25.10;67.10;;;;;;5035844;28;20048;-35
2023/08/22 00:42:11;;;;;;;3.30;2.90;;;25.10;67.40;;;;;;5047629;28;20041;-35
2023/08/22 00:44:37;;;;;;;2.70;2.50;;;25.10;67.50;;;;;;5051151;28;20040;-38
2023/08/22 00:47:04;;;;;;;2.67;2.47;;;25.10;67.70;;;;;;5052971;28;20092;-35
2023/08/22 00:49:30;;;;;;;2.97;2.78;;;25.10;67.90;;;;;;5050830;28;20356;-35
2023/08/22 00:51:58;;;;;;;2.70;2.50;;;25.20;68.10;;;;;;5033566;28;20033;-35
2023/08/22 00:54:25;;;;;;;2.63;2.42;;;25.10;68.10;;;;;;5051506;28;20493;-34
2023/08/22 00:56:52;;;;;;;2.60;2.40;;;25.20;68.30;;;;;;5056995;28;20026;-35
2023/08/22 00:59:18;;;;;;;4.22;2.85;;;25.20;68.40;;;;;;5016560;28;20043;-35
2023/08/22 01:01:44;;;;;;;2.70;2.50;;;25.20;68.50;;;;;;5048039;28;20043;-35
2023/08/22 01:04:10;;;;;;;2.60;2.40;;;25.20;68.70;;;;;;5054546;28;20479;-34
2023/08/22 01:06:54;;;;;;;3.33;2.90;;;25.20;68.70;;;;;;5052201;28;20037;-34
2023/08/22 01:09:34;;;;;;;3.38;3.08;;;25.30;68.90;;;;;;5059807;28;20505;-35
2023/08/22 01:12:04;;;;;;;3.30;3.00;;;25.30;69.00;;;;;;5027344;28;20382;-35
2023/08/22 01:14:30;;;;;;;2.83;2.63;;;25.30;69.10;;;;;;5032621;28;20132;-34
2023/08/22 01:16:56;;;;;;;2.97;2.78;;;25.30;69.10;;;;;;5030019;28;20030;-34
2023/08/22 01:19:22;;;;;;;2.97;2.77;;;25.30;69.20;;;;;;5043546;28;20449;-34
2023/08/22 01:21:52;;;;;;;3.13;2.90;;;25.30;69.20;;;;;;5043409;28;20025;-35
2023/08/22 01:24:19;;;;;;;4.05;3.35;;;25.40;69.30;;;;;;5049143;28;20034;-34
2023/08/22 01:26:45;;;;;;;2.95;2.75;;;25.40;69.40;;;;;;5051479;28;20040;-35
2023/08/22 01:29:32;;;;;;;3.33;3.03;;;25.40;69.40;;;;;;5047126;28;20053;-35
2023/08/22 01:32:04;;;;;;;3.30;3.00;;;25.40;69.50;;;;;;5050486;28;20033;-34
2023/08/22 01:34:31;;;;;;;3.20;2.67;;;25.40;69.60;;;;;;5057237;28;20409;-35
2023/08/22 01:36:58;;;;;;;3.38;3.08;;;25.40;69.60;;;;;;5019347;28;20034;-34
2023/08/22 01:39:25;;;;;;;;;;;25.40;69.70;;;;;;5044240;28;20063;-34
2023/08/22 01:41:51;;;;;;;3.00;2.70;;;25.40;69.70;;;;;;5052858;28;19920;-35
2023/08/22 01:44:18;;;;;;;3.22;2.92;;;25.40;69.80;;;;;;5035964;28;20509;-35
2023/08/22 01:46:44;;;;;;;3.47;3.17;;;25.40;69.80;;;;;;5059964;28;20037;-34
2023/08/22 01:49:10;;;;;;;3.22;2.92;;;25.50;69.90;;;;;;5058745;28;20071;-35
2023/08/22 01:51:36;;;;;;;3.33;2.80;;;25.50;70.00;;;;;;5060771;28;20037;-34
2023/08/22 01:54:03;;;;;;;3.30;3.00;;;25.50;70.00;;;;;;5053803;28;20060;-34
2023/08/22 01:56:29;;;;;;;4.10;3.17;;;25.50;70.00;;;;;;5060728;28;20025;-34
2023/08/22 01:58:55;;;;;;;3.70;3.40;;;25.50;70.00;;;;;;5057931;28;20887;-35
2023/08/22 02:01:23;;;;;;;3.40;3.10;;;25.50;70.00;;;;;;5056118;28;20036;-34
2023/08/22 02:03:49;;;;;;;3.97;3.67;;;25.50;70.00;;;;;;5057138;28;20048;-35
2023/08/22 02:06:15;;;;;;;3.80;3.50;;;25.50;70.10;;;;;;5063428;28;20025;-34
2023/08/22 02:08:41;;;;;;;3.43;3.13;;;25.50;70.20;;;;;;5062885;28;20029;-34
2023/08/22 02:11:08;;;;;;;3.20;3.00;;;25.50;70.30;;;;;;5057111;28;20029;-35
2023/08/22 02:13:34;;;;;;;3.55;3.25;;;25.50;70.30;;;;;;5062797;28;20063;-36
2023/08/22 02:16:00;;;;;;;3.07;2.87;;;25.50;70.30;;;;;;5063946;28;20441;-34
2023/08/22 02:18:26;;;;;;;3.47;3.17;;;25.60;70.50;;;;;;5038286;28;20048;-34
2023/08/22 02:20:55;;;;;;;3.30;3.00;;;25.50;70.40;;;;;;5063291;28;20039;-35
2023/08/22 02:23:21;;;;;;;3.40;3.10;;;25.50;70.40;;;;;;5050027;28;20032;-34
2023/08/22 02:25:48;;;;;;;3.50;3.20;;;25.50;70.50;;;;;;5056316;28;20022;-35
2023/08/22 02:28:14;;;;;;;3.90;3.60;;;25.60;70.50;;;;;;5063274;28;20039;-35
2023/08/22 02:30:40;;;;;;;3.50;3.20;;;25.60;70.60;;;;;;5056088;28;20096;-35
2023/08/22 02:33:06;;;;;;;4.00;3.67;;;25.60;70.60;;;;;;5051412;28;20044;-35
2023/08/22 02:35:32;;;;;;;3.40;3.20;;;25.60;70.60;;;;;;5061919;28;20094;-35
2023/08/22 02:37:59;;;;;;;3.70;3.42;;;25.60;70.70;;;;;;5063048;28;20056;-35
2023/08/22 02:40:25;;;;;;;3.47;3.17;;;25.60;70.60;;;;;;5062249;28;20036;-35
2023/08/22 02:42:52;;;;;;;4.28;3.40;;;25.60;70.70;;;;;;5053032;28;20036;-35
2023/08/22 02:45:18;;;;;;;3.70;3.40;;;25.60;70.70;;;;;;5059092;28;20082;-35
2023/08/22 02:47:44;;;;;;;3.20;3.00;;;25.60;70.80;;;;;;5058459;28;20038;-34
2023/08/22 02:50:10;;;;;;;3.23;2.93;;;25.60;70.80;;;;;;5058701;28;20029;-35
2023/08/22 02:52:37;;;;;;;3.63;3.33;;;25.60;70.80;;;;;;5047313;28;20037;-34
2023/08/22 02:55:03;;;;;;;3.67;3.38;;;25.60;70.80;;;;;;5063339;28;20041;-34
2023/08/22 02:57:29;;;;;;;4.03;3.22;;;25.60;70.90;;;;;;5062035;28;20028;-36
2023/08/22 02:59:56;;;;;;;3.73;3.43;;;25.60;70.90;;;;;;5059595;28;20037;-34
2023/08/22 03:02:22;;;;;;;3.50;3.20;;;25.60;70.90;;;;;;5059480;28;20576;-34
2023/08/22 03:04:48;;;;;;;3.72;3.42;;;25.60;70.90;;;;;;5062666;28;20032;-34
2023/08/22 03:07:14;;;;;;;3.92;3.63;;;25.60;70.90;;;;;;5062410;28;20080;-34
2023/08/22 03:09:40;;;;;;;3.78;3.47;;;25.60;70.90;;;;;;5052055;28;20037;-34
2023/08/22 03:12:06;;;;;;;3.80;3.50;;;25.60;70.90;;;;;;5050574;28;20029;-34
2023/08/22 03:14:33;;;;;;;3.80;3.60;;;25.70;71.00;;;;;;5047685;28;20295;-34
2023/08/22 03:16:59;;;;;;;3.47;3.17;;;25.70;71.00;;;;;;5056572;28;20392;-34
2023/08/22 03:19:25;;;;;;;3.60;3.30;;;25.70;71.10;;;;;;5051759;28;20040;-34
2023/08/22 03:21:51;;;;;;;3.60;3.30;;;25.60;71.00;;;;;;5048612;28;20032;-34
2023/08/22 03:24:17;;;;;;;3.83;3.47;;;25.60;71.10;;;;;;5062030;28;20033;-34
2023/08/22 03:26:43;;;;;;;4.03;3.30;;;25.70;71.00;;;;;;5055629;28;20037;-33
2023/08/22 03:29:09;;;;;;;3.25;2.95;;;25.60;71.00;;;;;;5049945;28;20132;-34
2023/08/22 03:31:35;;;;;;;3.57;3.27;;;25.70;71.10;;;;;;5050105;28;20075;-34
2023/08/22 03:34:02;;;;;;;3.92;3.63;;;25.70;71.10;;;;;;5045065;28;20099;-33
2023/08/22 03:36:28;;;;;;;3.72;3.42;;;25.60;71.10;;;;;;5046505;28;20040;-34
2023/08/22 03:38:54;;;;;;;3.80;3.50;;;25.70;71.10;;;;;;5054244;28;20049;-34
2023/08/22 03:41:20;;;;;;;3.83;3.53;;;25.60;71.10;;;;;;5055071;28;20041;-34
2023/08/22 03:43:47;;;;;;;4.03;3.72;;;25.70;71.10;;;;;;5056245;28;20041;-33
2023/08/22 03:46:13;;;;;;;4.33;3.93;;;25.70;71.10;;;;;;5052929;28;20040;-34
2023/08/22 03:48:39;;;;;;;3.72;3.42;;;25.70;71.20;;;;;;5053808;28;20033;-34
2023/08/22 03:51:09;;;;;;;3.90;3.60;;;25.70;71.20;;;;;;5049623;28;20075;-34
2023/08/22 03:53:36;;;;;;;3.25;3.03;;;25.70;71.10;;;;;;5052612;28;20072;-34
2023/08/22 03:56:02;;;;;;;4.07;3.70;;;25.70;71.20;;;;;;5056370;28;20053;-34
2023/08/22 03:58:28;;;;;;;3.70;3.40;;;25.60;71.20;;;;;;5053652;28;20040;-33
2023/08/22 04:00:54;;;;;;;3.50;3.20;;;25.60;71.10;;;;;;5046718;28;20032;-34
2023/08/22 04:03:21;;;;;;;3.78;3.47;;;25.60;71.10;;;;;;5044990;28;20057;-34
2023/08/22 04:05:47;;;;;;;4.18;3.78;;;25.60;71.10;;;;;;5047603;28;20041;-34
2023/08/22 04:08:13;;;;;;;4.10;3.80;;;25.70;71.10;;;;;;5048542;28;20041;-34
2023/08/22 04:10:39;;;;;;;4.03;3.73;;;25.60;71.10;;;;;;5053149;28;20119;-34
2023/08/22 04:13:05;;;;;;;3.95;3.65;;;25.70;71.10;;;;;;5056129;28;20033;-34
2023/08/22 04:15:35;;;;;;;3.87;3.57;;;25.70;71.10;;;;;;5041200;28;20064;-34
2023/08/22 04:18:01;;;;;;;3.92;3.63;;;25.60;71.10;;;;;;5061049;28;20036;-34
2023/08/22 04:20:27;;;;;;;3.83;3.53;;;25.70;71.10;;;;;;5053375;28;20067;-34
2023/08/22 04:22:53;;;;;;;4.18;3.70;;;25.70;71.10;;;;;;5053955;28;20086;-34
2023/08/22 04:25:19;;;;;;;4.00;3.70;;;25.70;71.20;;;;;;5054320;28;20076;-34
2023/08/22 04:27:45;;;;;;;3.57;3.33;;;25.70;71.30;;;;;;5061252;28;20040;-34
2023/08/22 04:30:11;;;;;;;4.07;3.67;;;25.70;71.40;;;;;;5057069;28;20286;-34
2023/08/22 04:32:38;;;;;;;4.13;3.83;;;25.60;71.40;;;;;;5052829;28;20056;-34
2023/08/22 04:35:04;;;;;;;3.93;3.63;;;25.70;71.40;;;;;;5060928;28;20060;-34
2023/08/22 04:37:30;;;;;;;4.22;3.92;;;25.60;71.40;;;;;;5060579;28;20033;-34
2023/08/22 04:39:57;;;;;;;4.10;3.80;;;25.60;71.40;;;;;;5060669;28;20036;-34
2023/08/22 04:42:23;;;;;;;4.05;3.75;;;25.60;71.20;;;;;;5060586;28;20290;-34
2023/08/22 04:44:50;;;;;;;3.85;3.55;;;25.60;71.10;;;;;;5054226;28;20048;-34
2023/08/22 04:47:16;;;;;;;4.30;3.90;;;25.60;71.20;;;;;;5061086;28;20033;-34
2023/08/22 04:49:42;;;;;;;3.70;3.40;;;25.60;71.10;;;;;;5051465;28;20289;-34
2023/08/22 04:52:08;;;;;;;4.77;4.37;;;25.60;71.10;;;;;;5051414;28;20461;-34
2023/08/22 04:54:34;;;;;;;4.15;3.85;;;25.60;71.10;;;;;;5060321;28;20044;-34
2023/08/22 04:57:00;;;;;;;3.78;3.42;;;25.60;71.10;;;;;;5065937;28;20032;-34
2023/08/22 04:59:27;;;;;;;4.10;3.80;;;25.60;71.20;;;;;;5035097;28;20037;-34
2023/08/22 05:01:53;;;;;;;3.83;3.53;;;25.60;71.30;;;;;;5052981;28;20060;-34
2023/08/22 05:04:19;;;;;;;4.15;3.85;;;25.60;71.50;;;;;;5047187;28;20107;-34
2023/08/22 05:06:45;;;;;;;4.13;3.72;;;25.60;71.50;;;;;;5071269;28;20033;-34
2023/08/22 05:09:15;;;;;;;3.90;3.60;;;25.60;71.50;;;;;;5080762;28;20032;-34
2023/08/22 05:11:41;;;;;;;4.07;3.78;;;25.60;71.50;;;;;;5052604;28;20037;-34
2023/08/22 05:14:11;;;;;;;3.95;3.65;;;25.60;71.40;;;;;;5065747;28;20056;-34
2023/08/22 05:16:38;;;;;;;3.90;3.60;;;25.60;71.40;;;;;;5065080;28;20134;-34
2023/08/22 05:19:05;;;;;;;4.15;3.85;;;25.60;71.20;;;;;;5059514;28;20047;-34
2023/08/22 05:21:31;;;;;;;4.20;3.80;;;25.60;71.20;;;;;;5066368;28;20036;-34
2023/08/22 05:23:57;;;;;;;4.15;3.85;;;25.60;71.10;;;;;;5071765;28;20040;-34
2023/08/22 05:26:23;;;;;;;4.15;3.75;;;25.60;71.10;;;;;;5065417;28;20093;-34
2023/08/22 05:28:49;;;;;;;3.90;3.60;;;25.60;71.10;;;;;;5065763;28;20036;-34
2023/08/22 05:31:22;;;;;;;4.97;3.87;;;25.60;71.10;;;;;;5065402;28;20067;-34
2023/08/22 05:33:49;;;;;;;4.20;3.90;;;25.60;71.30;;;;;;5053540;28;20171;-34
2023/08/22 05:36:15;;;;;;;4.05;3.75;;;25.60;71.50;;;;;;5066751;28;20033;-34
2023/08/22 05:38:41;;;;;;;4.20;3.90;;;25.60;71.50;;;;;;5063725;28;20059;-34
2023/08/22 05:41:08;;;;;;;3.87;3.50;;;25.60;71.70;;;;;;5061966;28;20032;-34
2023/08/22 05:43:35;;;;;;;4.25;3.95;;;25.60;71.70;;;;;;5065073;28;20444;-34
2023/08/22 05:46:02;;;;;;;4.35;4.05;;;25.60;71.80;;;;;;5060290;28;20521;-34
2023/08/22 05:48:29;;;;;;;4.00;3.70;;;25.60;71.80;;;;;;5063305;28;20041;-34
2023/08/22 05:50:56;;;;;;;4.18;3.78;;;25.60;71.80;;;;;;5065232;28;20041;-34
2023/08/22 05:53:23;;;;;;;4.10;3.80;;;25.60;71.50;;;;;;5059831;28;20041;-35
2023/08/22 05:55:49;;;;;;;3.83;3.53;;;25.50;71.30;;;;;;5052499;28;20021;-34
2023/08/22 05:58:15;;;;;;;4.22;3.92;;;25.60;71.30;;;;;;5052651;28;20297;-34
2023/08/22 06:00:41;;;;;;;4.00;3.70;;;25.60;71.30;;;;;;5055932;28;20061;-34
2023/08/22 06:03:07;;;;;;;4.23;3.93;;;25.50;71.10;;;;;;5063625;28;20025;-34
2023/08/22 06:05:33;;;;;;;3.63;3.33;;;25.60;71.20;;;;;;5055105;28;20033;-34
2023/08/22 06:07:59;;;;;;;4.05;3.75;;;25.60;71.20;;;;;;5059510;28;20087;-34
2023/08/22 06:10:25;;;;;;;3.63;3.42;;;25.50;71.60;;;;;;5064903;28;20046;-34
2023/08/22 06:12:52;;;;;;;4.13;3.70;;;25.50;71.80;;;;;;5052315;28;20025;-34
2023/08/22 06:15:18;;;;;;;4.55;4.15;;;25.50;71.90;;;;;;5054635;28;20504;-34
2023/08/22 06:17:44;;;;;;;4.45;4.13;;;25.50;71.90;;;;;;5072525;28;20029;-34
2023/08/22 06:20:10;;;;;;;4.22;3.83;;;25.50;71.90;;;;;;5064736;28;20118;-34
2023/08/22 06:22:37;;;;;;;4.30;3.92;;;25.50;72.10;;;;;;5069968;28;20054;-34
2023/08/22 06:25:04;;;;;;;4.17;3.87;;;25.50;72.10;;;;;;5063451;28;20033;-34
2023/08/22 06:27:31;;;;;;;4.18;3.88;;;25.50;71.70;;;;;;5071841;28;20052;-34
2023/08/22 06:29:57;;;;;;;;;;;25.50;71.50;;;;;;5071940;28;20053;-34
2023/08/22 06:32:23;;;;;;;3.80;3.50;;;25.50;71.40;;;;;;5052937;28;19919;-34
2023/08/22 06:34:50;;;;;;;4.20;3.90;;;25.50;71.40;;;;;;5044941;28;20060;-34
2023/08/22 06:37:16;;;;;;;4.30;3.97;;;25.50;71.40;;;;;;5052769;28;20056;-34
2023/08/22 06:39:42;;;;;;;4.45;4.05;;;25.50;71.40;;;;;;5049689;28;20041;-34
2023/08/22 06:42:08;;;;;;;4.45;4.15;;;25.50;71.30;;;;;;5050727;28;20056;-33
2023/08/22 06:44:34;;;;;;;4.15;3.80;;;25.50;71.50;;;;;;5053330;28;20476;-34
2023/08/22 06:47:02;;;;;;;4.33;4.00;;;25.50;71.90;;;;;;5055917;28;20030;-34
2023/08/22 06:49:28;;;;;;;4.10;3.80;;;25.50;72.00;;;;;;5053683;28;20111;-34
2023/08/22 06:51:54;;;;;;;4.20;3.80;;;25.40;72.30;;;;;;5048797;28;20026;-34
2023/08/22 06:54:20;;;;;;;4.47;4.10;;;25.40;72.20;;;;;;5048889;28;22050;-34
2023/08/22 06:56:46;;;;;;;4.32;3.92;;;25.40;72.20;;;;;;5050846;28;20025;-34
2023/08/22 06:59:12;;;;;;;4.20;3.90;;;25.40;72.00;;;;;;5052394;28;20039;-34
2023/08/22 07:01:39;;;;;;;4.10;3.80;;;25.40;71.80;;;;;;5067605;28;20056;-34
2023/08/22 07:04:05;;;;;;;4.32;4.03;;;25.40;71.60;;;;;;5067725;28;20025;-34
2023/08/22 07:06:31;;;;;;;4.00;3.70;;;25.40;71.60;;;;;;5071997;28;20036;-34
2023/08/22 07:08:57;;;;;;;4.20;3.90;;;25.40;71.60;;;;;;5077884;28;20027;-34
2023/08/22 07:11:23;;;;;;;4.50;4.10;;;25.40;71.50;;;;;;5070679;28;20068;-34
2023/08/22 07:13:50;;;;;;;4.33;3.93;;;25.40;71.60;;;;;;5061591;28;20056;-34
2023/08/22 07:16:17;;;;;;;4.20;3.85;;;25.40;71.60;;;;;;5070948;28;20032;-34
2023/08/22 07:18:43;;;;;;;4.55;4.25;;;25.40;71.60;;;;;;5052085;28;20035;-34
2023/08/22 07:21:09;;;;;;;5.45;4.00;;;25.40;71.60;;;;;;5057426;28;20032;-34
2023/08/22 07:23:35;;;;;;;4.20;3.90;;;25.40;71.80;;;;;;5069271;28;20112;-34
2023/08/22 07:26:01;;;;;;;4.18;3.88;;;25.40;71.90;;;;;;5054435;28;20025;-33
2023/08/22 07:28:28;;;;;;;4.40;4.10;;;25.40;71.80;;;;;;5053920;28;20026;-34
2023/08/22 07:30:54;;;;;;;4.70;4.30;;;25.40;72.10;;;;;;5055772;28;20036;-34
2023/08/22 07:33:20;;;;;;;4.23;3.93;;;25.40;72.10;;;;;;5051179;28;20059;-34
2023/08/22 07:35:46;;;;;;;4.30;4.00;;;25.40;72.00;;;;;;5052886;28;20034;-34
2023/08/22 07:38:13;;;;;;;4.28;3.97;;;25.40;71.90;;;;;;5045256;28;20121;-34
2023/08/22 07:40:40;;;;;;;4.28;3.97;;;25.40;71.80;;;;;;5046004;28;20055;-33
2023/08/22 07:43:06;;;;;;;4.22;3.92;;;25.40;71.80;;;;;;5043125;28;20112;-34
2023/08/22 07:45:32;;;;;;;4.47;4.00;;;25.30;71.70;;;;;;5050793;28;20092;-34
2023/08/22 07:47:59;;;;;;;4.43;4.10;;;25.30;71.80;;;;;;5057530;28;20877;-34
2023/08/22 07:50:25;;;;;;;4.35;4.00;;;25.30;71.80;;;;;;5054675;28;20297;-34
2023/08/22 07:52:51;;;;;;;4.00;3.70;;;25.30;71.80;;;;;;5054206;28;20034;-34
2023/08/22 07:55:17;;;;;;;4.22;3.92;;;25.30;71.80;;;;;;5054200;28;20032;-34
2023/08/22 07:57:43;;;;;;;4.20;3.90;;;25.30;72.00;;;;;;5047755;28;20029;-34
2023/08/22 08:00:13;;;;;;;4.23;3.93;;;25.30;72.00;;;;;;5052009;28;20021;-34
2023/08/22 08:02:39;;;;;;;4.20;3.90;;;25.30;72.10;;;;;;5045596;28;20052;-34
2023/08/22 08:05:06;;;;;;;4.60;4.20;;;25.30;72.10;;;;;;5045842;28;20128;-34
2023/08/22 08:07:34;;;;;;;4.60;4.25;;;25.30;72.30;;;;;;5045409;28;20030;-34
2023/08/22 08:10:00;;;;;;;4.20;3.90;;;25.20;72.10;;;;;;5044683;28;20095;-34
2023/08/22 08:12:26;;;;;;;4.20;3.83;;;25.30;72.20;;;;;;5055704;28;20017;-34
2023/08/22 08:14:53;;;;;;;4.18;3.88;;;25.30;72.20;;;;;;5054446;28;20834;-34
2023/08/22 08:17:19;;;;;;;4.17;3.87;;;25.30;72.10;;;;;;5060779;28;20488;-34
2023/08/22 08:19:45;;;;;;;4.30;4.00;;;25.20;72.10;;;;;;5058106;28;20056;-34
2023/08/22 08:22:11;;;;;;;4.50;4.10;;;25.20;72.10;;;;;;5057511;28;20265;-34
2023/08/22 08:24:38;;;;;;;4.60;4.30;;;25.20;72.00;;;;;;5064317;28;20053;-34
2023/08/22 08:27:05;;;;;;;4.75;4.40;;;25.20;72.10;;;;;;5056130;28;20037;-34
2023/08/22 08:29:31;;;;;;;4.90;4.50;;;25.20;72.10;;;;;;5042725;28;20033;-35
2023/08/22 08:31:57;;;;;;;4.45;4.05;;;25.20;72.10;;;;;;5055832;28;20029;-34
2023/08/22 08:34:24;;;;;;;4.75;4.35;;;25.20;72.20;;;;;;5053445;28;20143;-34
2023/08/22 08:36:50;;;;;;;5.00;4.60;;;25.20;72.30;;;;;;5051008;28;20025;-34
2023/08/22 08:39:19;;;;;;;4.87;4.40;;;25.20;72.30;;;;;;5050977;28;20033;-34
2023/08/22 08:42:12;;;;;;;4.55;4.15;;;25.20;72.40;;;;;;5043083;28;20057;-35
2023/08/22 08:44:38;;;;;;;4.80;4.40;;;25.20;72.40;;;;;;5050592;28;20040;-34
2023/08/22 08:47:04;;;;;;;4.65;4.25;;;25.20;72.50;;;;;;5028730;28;20078;-34
2023/08/22 08:49:34;;;;;;;4.83;4.43;;;25.20;72.40;;;;;;5052247;28;20031;-34
2023/08/22 08:52:02;;;;;;;4.75;4.35;;;25.20;72.50;;;;;;5043358;28;20901;-34
2023/08/22 08:54:28;;;;;;;4.70;4.30;;;25.20;72.40;;;;;;5055843;28;20082;-34
2023/08/22 08:56:55;;;;;;;4.83;4.10;;;25.10;72.30;;;;;;5060737;28;20057;-34
2023/08/22 08:59:22;;;;;;;4.43;4.13;;;25.20;72.40;;;;;;5052482;28;20029;-39
2023/08/22 09:01:49;;;;;;;4.35;4.05;;;25.20;72.50;;;;;;5052091;28;20029;-34
2023/08/22 09:04:16;;;;;;;4.55;4.15;;;25.10;72.40;;;;;;5043798;28;20053;-35
2023/08/22 09:06:44;;;;;;;4.80;4.40;;;25.10;72.50;;;;;;5049317;28;20037;-35
2023/08/22 09:09:12;;;;;;;5.10;4.70;;;25.10;72.50;;;;;;5029489;28;20093;-34
2023/08/22 09:11:45;;;;;;;5.30;4.90;;;25.10;72.60;;;;;;5051847;28;20064;-35
2023/08/22 09:14:11;;;;;;;5.18;4.78;;;25.10;72.60;;;;;;5049185;28;20045;-34
2023/08/22 09:16:37;;;;;;;4.30;4.00;;;25.10;72.70;;;;;;5050539;28;20074;-34
2023/08/22 09:19:04;;;;;;;5.10;4.70;;;25.10;72.70;;;;;;5050225;28;20281;-35
2023/08/22 09:21:30;;;;;;;4.78;4.45;;;25.10;72.70;;;;;;5045675;28;20057;-35
2023/08/22 09:24:09;;;;;;;4.80;4.40;;;25.10;72.70;;;;;;5050529;28;20044;-35
2023/08/22 09:26:36;;;;;;;4.20;3.90;;;25.10;72.70;;;;;;5046994;28;20067;-34
2023/08/22 09:29:06;;;;;;;4.90;4.50;;;25.10;72.70;;;;;;5050016;28;20040;-35
2023/08/22 09:31:34;;;;;;;4.95;4.55;;;25.10;72.60;;;;;;5038367;28;20025;-34
2023/08/22 09:34:05;;;;;;;4.72;4.40;;;25.00;72.60;;;;;;5054255;28;20056;-34
2023/08/22 09:36:31;;;;;;;4.32;4.03;;;25.10;72.60;;;;;;5033118;28;20030;-34
2023/08/22 09:38:58;;;;;;;5.10;4.70;;;25.10;72.60;;;;;;5054841;28;20477;-34
2023/08/22 09:41:26;;;;;;;4.50;4.18;;;25.00;72.60;;;;;;5060575;28;20024;-34
2023/08/22 09:44:00;;;;;;;4.70;4.30;;;25.00;72.70;;;;;;5038905;28;20508;-34
2023/08/22 09:46:27;;;;;;;4.93;4.47;;;25.00;72.70;;;;;;5065746;28;20028;-34
2023/08/22 09:48:55;;;;;;;5.07;4.68;;;25.00;72.80;;;;;;5038327;28;20063;-34
2023/08/22 09:51:22;;;;;;;4.50;4.20;;;25.00;72.80;;;;;;5052444;28;20033;-34
2023/08/22 09:53:52;;;;;;;4.72;4.32;;;25.00;72.90;;;;;;5052066;28;20041;-34
2023/08/22 09:56:21;;;;;;;4.63;4.32;;;25.00;72.90;;;;;;5060055;28;20021;-34
2023/08/22 09:58:47;;;;;;;5.22;4.82;;;25.00;73.00;;;;;;5063412;28;20493;-35
2023/08/22 10:01:16;;;;;;;4.68;4.38;;;25.00;72.80;;;;;;5058983;28;20036;-34
2023/08/22 10:03:48;;;;;;;4.60;4.30;;;25.00;72.90;;;;;;5029149;28;20033;-34
2023/08/22 10:06:15;;;;;;;4.75;4.35;;;25.00;72.90;;;;;;5053625;28;20021;-34
2023/08/22 10:08:47;;;;;;;4.10;3.80;;;25.00;73.00;;;;;;5053381;28;20029;-35
2023/08/22 10:11:13;;;;;;;4.95;4.55;;;25.00;72.80;;;;;;5054339;28;20045;-34
2023/08/22 10:13:39;;;;;;;4.95;4.55;;;25.00;72.80;;;;;;5062979;28;20036;-34
2023/08/22 10:16:06;;;;;;;4.33;4.03;;;25.00;72.70;;;;;;5060404;28;20025;-34
2023/08/22 10:18:32;;;;;;;4.90;4.50;;;25.00;72.90;;;;;;5041603;28;20831;-34
2023/08/22 10:20:58;;;;;;;4.75;4.45;;;25.00;72.80;;;;;;5057397;28;20021;-34
2023/08/22 10:23:52;;;;;;;4.90;4.50;;;25.00;72.90;;;;;;5058794;28;20490;-34
2023/08/22 10:26:22;;;;;;;5.03;4.63;;;24.90;72.90;;;;;;5059847;28;20025;-34
2023/08/22 10:29:16;;;;;;;4.50;4.10;;;24.90;73.00;;;;;;5072390;28;20088;-34
2023/08/22 10:32:01;;;;;;;4.45;4.15;;;24.90;73.00;;;;;;5051813;28;20051;-34
2023/08/22 10:34:39;;;;;;;4.65;4.25;;;24.90;73.00;;;;;;5061423;28;20049;-34
2023/08/22 10:37:15;;;;;;;5.03;4.63;;;24.90;73.10;;;;;;5050972;28;20022;-34
2023/08/22 10:39:45;;;;;;;4.50;4.20;;;24.90;73.00;;;;;;5028012;28;21184;-35
2023/08/22 10:42:14;;;;;;;4.53;4.13;;;24.90;73.00;;;;;;5057933;28;20055;-35
2023/08/22 10:44:40;;;;;;;4.45;4.15;;;24.90;73.00;;;;;;5054584;28;20032;-35
2023/08/22 10:47:19;;;;;;;4.63;4.32;;;24.90;73.70;;;;;;5057457;28;20056;-35
2023/08/22 10:49:49;;;;;;;4.43;4.13;;;24.90;73.00;;;;;;5050130;28;20241;-35
2023/08/22 10:52:16;;;;;;;4.38;4.07;;;24.90;73.00;;;;;;5062635;28;20051;-35
2023/08/22 10:55:01;;;;;;;4.72;4.32;;;24.80;73.00;;;;;;5041806;28;20029;-35
2023/08/22 10:57:28;;;;;;;4.70;4.35;;;24.80;72.90;;;;;;5046781;28;20117;-35
2023/08/22 11:00:00;;;;;;;5.03;4.63;;;24.80;73.10;;;;;;5052382;28;20026;-34
2023/08/22 11:02:30;;;;;;;4.90;4.50;;;24.80;73.10;;;;;;5048267;28;20040;-35
2023/08/22 11:04:57;;;;;;;4.65;4.35;;;24.80;73.20;;;;;;5044055;28;20025;-35
2023/08/22 11:07:24;;;;;;;4.85;4.40;;;24.80;73.20;;;;;;5036908;28;20100;-35
2023/08/22 11:09:50;;;;;;;4.90;4.50;;;24.80;73.30;;;;;;5054621;28;20083;-35
2023/08/22 11:12:18;;;;;;;5.35;4.95;;;24.80;73.20;;;;;;5038143;28;20055;-35
2023/08/22 11:14:45;;;;;;;5.07;4.68;;;24.80;73.20;;;;;;5052722;28;20041;-35
2023/08/22 11:17:14;;;;;;;5.50;5.10;;;24.80;73.30;;;;;;5049655;28;20017;-35
2023/08/22 11:19:40;;;;;;;4.45;4.15;;;24.80;73.10;;;;;;5046132;28;20117;-35
2023/08/22 11:22:06;;;;;;;4.82;4.43;;;24.80;73.00;;;;;;5045558;28;20029;-35
2023/08/22 11:24:33;;;;;;;5.03;4.63;;;24.80;73.00;;;;;;5053510;28;20032;-35
2023/08/22 11:27:06;;;;;;;5.07;4.68;;;24.80;73.20;;;;;;5033115;28;20030;-34
2023/08/22 11:29:46;;;;;;;4.80;4.40;;;24.80;73.20;;;;;;5046524;28;20065;-35
2023/08/22 11:32:28;;;;;;;4.95;4.55;;;24.80;73.30;;;;;;5058055;28;20021;-35
2023/08/22 11:34:59;;;;;;;4.70;4.30;;;24.80;73.30;;;;;;5043922;28;20056;-35
2023/08/22 11:37:26;;;;;;;4.90;4.50;;;24.70;73.30;;;;;;5052824;28;20028;-35
2023/08/22 11:39:53;;;;;;;4.80;4.45;;;24.70;73.30;;;;;;5051032;28;20094;-35
2023/08/22 11:42:20;;;;;;;5.10;4.70;;;24.70;73.30;;;;;;5052018;28;20098;-35
2023/08/22 11:45:05;;;;;;;5.13;4.72;;;24.70;73.50;;;;;;5054229;28;20528;-35
2023/08/22 11:47:47;;;;;;;5.18;4.70;;;24.70;73.40;;;;;;5051685;28;20572;-35
2023/08/22 11:50:22;;;;;;;4.75;4.35;;;24.70;73.50;;;;;;5057041;28;20029;-35
2023/08/22 11:52:49;;;;;;;5.40;5.00;;;24.70;73.40;;;;;;5051243;28;20183;-35
2023/08/22 11:55:22;;;;;;;4.97;4.57;;;24.70;73.40;;;;;;5058445;28;20086;-35
2023/08/22 11:57:51;;;;;;;5.25;4.85;;;24.70;73.40;;;;;;5058774;28;20064;-35
2023/08/22 12:00:18;;;;;;;5.25;4.85;;;24.70;73.50;;;;;;5056138;28;20021;-35
2023/08/22 12:02:55;;;;;;;5.10;4.70;;;24.70;73.50;;;;;;5047900;28;20040;-35
2023/08/22 12:05:34;;;;;;;5.13;4.63;;;24.70;73.40;;;;;;5053988;28;20029;-35
2023/08/22 12:08:06;;;;;;;5.40;4.85;;;24.70;73.40;;;;;;5048971;28;20025;-35
2023/08/22 12:11:01;;;;;;;5.30;4.90;;;24.70;73.50;;;;;;5060307;28;20029;-34
2023/08/22 12:13:27;;;;;;;5.47;5.07;;;24.70;73.50;;;;;;5050042;28;20084;-34
2023/08/22 12:15:53;;;;;;;5.13;4.73;;;24.60;73.60;;;;;;5058479;28;20029;-34
2023/08/22 12:18:24;;;;;;;4.88;4.47;;;24.60;73.50;;;;;;5060217;28;20110;-35
2023/08/22 12:20:50;;;;;;;5.32;4.93;;;24.60;73.60;;;;;;5032328;28;20029;-33
2023/08/22 12:23:16;;;;;;;5.53;5.03;;;24.60;73.60;;;;;;5057203;28;20032;-34
2023/08/22 12:25:43;;;;;;;5.53;5.13;;;24.60;73.70;;;;;;5053526;28;20037;-34
2023/08/22 12:28:09;;;;;;;5.35;4.95;;;24.60;73.60;;;;;;5033249;28;20054;-34
2023/08/22 12:30:36;;;;;;;5.53;5.03;;;24.60;73.60;;;;;;5049118;28;20033;-34
2023/08/22 12:33:03;;;;;;;4.82;4.50;;;24.60;73.50;;;;;;5055547;28;20065;-35
2023/08/22 12:35:33;;;;;;;5.70;5.20;;;24.60;73.60;;;;;;5051804;28;20040;-34
2023/08/22 12:38:00;;;;;;;5.20;4.80;;;24.60;73.60;;;;;;5054959;28;20700;-34
2023/08/22 12:40:26;;;;;;;5.40;4.90;;;24.60;73.60;;;;;;5060004;28;20450;-33
2023/08/22 12:42:52;;;;;;;6.10;5.60;;;24.60;73.60;;;;;;5060426;28;20056;-34
2023/08/22 12:45:19;;;;;;;5.23;4.83;;;24.60;73.70;;;;;;5055380;28;20288;-34
2023/08/22 12:47:45;;;;;;;5.73;5.33;;;24.60;73.60;;;;;;5046562;28;20025;-34
2023/08/22 12:50:11;;;;;;;5.68;5.18;;;24.60;73.80;;;;;;5059298;28;20278;-34